Time;durP1;ratioP1;P1;durP2;ratioP2;P2;SDS_P1;SDS_P2;PMS_P1;PMS_P2;Temp;Humidity;BMP_temperature;BMP_pressure;BME280_temperature;BME280_humidity;BME280_pressure;Samples;Min_cycle;Max_cycle;Signal;HPM_P1;HPM_P2
2023/12/12 12:01:23;;;;;;;8.50;3.13;;;;;;;9.89;100.00;100073.81;5268046;28;20373;-66
2023/12/12 12:03:54;;;;;;;12.83;3.97;;;;;;;9.96;100.00;100075.97;5256381;28;20025;-66
2023/12/12 12:06:26;;;;;;;12.73;3.97;;;;;;;9.97;100.00;100061.94;5253361;28;20035;-65
2023/12/12 12:08:57;;;;;;;7.83;2.60;;;;;;;9.98;100.00;100058.41;5250581;28;20041;-65
2023/12/12 12:11:39;;;;;;;9.53;3.67;;;;;;;10.01;100.00;100060.78;5250091;28;20107;-65
2023/12/12 12:14:12;;;;;;;12.70;4.27;;;;;;;10.00;100.00;100056.53;5251390;28;20030;-66
2023/12/12 12:16:44;;;;;;;9.67;3.03;;;;;;;10.11;100.00;100064.44;5252963;28;20033;-66
2023/12/12 12:19:34;;;;;;;9.60;3.07;;;;;;;10.22;100.00;100057.59;5251706;28;20114;-66
2023/12/12 12:22:07;;;;;;;8.67;3.07;;;;;;;10.16;100.00;100053.63;5250525;28;20071;-68
2023/12/12 12:24:43;;;;;;;9.77;3.23;;;;;;;10.18;100.00;100049.13;5251758;28;20025;-65
2023/12/12 12:27:14;;;;;;;13.50;3.57;;;;;;;10.22;100.00;100034.06;5250252;28;20059;-65
2023/12/12 12:30:05;;;;;;;8.83;3.27;;;;;;;10.33;100.00;100031.53;5251191;28;20070;-66
2023/12/12 12:32:37;;;;;;;15.77;5.03;;;;;;;10.29;100.00;100011.72;5251677;28;20390;-66
2023/12/12 12:35:09;;;;;;;10.60;3.37;;;;;;;10.31;100.00;100012.47;5253075;28;20112;-66
2023/12/12 12:37:41;;;;;;;16.00;3.40;;;;;;;10.39;100.00;100019.75;5248144;28;20796;-74
2023/12/12 12:40:30;;;;;;;10.47;3.10;;;;;;;10.49;100.00;100019.97;5247125;28;20115;-69
2023/12/12 12:43:11;;;;;;;11.97;4.03;;;;;;;10.44;100.00;100020.25;5249444;28;20032;-72
2023/12/12 12:45:45;;;;;;;6.90;3.30;;;;;;;10.43;100.00;100002.88;5250640;28;20025;-71
2023/12/12 12:48:16;;;;;;;6.60;2.97;;;;;;;10.40;100.00;100001.31;5248059;28;20030;-67
2023/12/12 12:50:49;;;;;;;14.13;3.23;;;;;;;10.47;100.00;99999.09;5250351;28;20117;-68
2023/12/12 12:53:20;;;;;;;10.27;2.97;;;;;;;10.51;100.00;99994.47;5249166;28;20135;-67
2023/12/12 12:55:52;;;;;;;8.73;2.37;;;;;;;10.53;100.00;100000.44;5251176;28;20040;-66
2023/12/12 12:58:23;;;;;;;8.27;3.20;;;;;;;10.46;100.00;99999.19;5250729;28;20029;-69
2023/12/12 13:00:55;;;;;;;6.77;2.57;;;;;;;10.55;100.00;99993.31;5251135;28;20428;-67
2023/12/12 13:03:26;;;;;;;7.30;2.77;;;;;;;10.56;100.00;99989.75;5250508;28;20163;-69
2023/12/12 13:05:58;;;;;;;6.90;3.50;;;;;;;10.51;100.00;99979.63;5251125;28;20163;-68
2023/12/12 13:08:30;;;;;;;5.50;2.10;;;;;;;10.49;100.00;99967.59;5250234;28;20032;-68
2023/12/12 13:11:01;;;;;;;8.63;3.17;;;;;;;10.53;100.00;99969.03;5247401;28;20030;-69
2023/12/12 13:13:32;;;;;;;5.47;2.13;;;;;;;10.45;100.00;99966.13;5235375;28;20448;-68
2023/12/12 13:16:05;;;;;;;4.93;2.40;;;;;;;10.46;100.00;99965.16;5242427;28;20033;-69
2023/12/12 13:18:36;;;;;;;7.07;2.60;;;;;;;10.45;100.00;99969.59;5235309;28;20025;-69
2023/12/12 13:21:08;;;;;;;5.07;2.43;;;;;;;10.46;100.00;99959.94;5236376;28;20068;-67
2023/12/12 13:23:39;;;;;;;5.53;2.23;;;;;;;10.43;100.00;99957.53;5235690;28;20037;-68
2023/12/12 13:26:10;;;;;;;4.63;2.17;;;;;;;10.40;100.00;99954.19;5235673;28;20025;-67
2023/12/12 13:28:42;;;;;;;6.27;2.70;;;;;;;10.49;100.00;99936.19;5236712;28;20116;-69
2023/12/12 13:31:13;;;;;;;7.73;2.40;;;;;;;10.49;100.00;99941.44;5235793;28;20412;-68
2023/12/12 13:33:45;;;;;;;7.97;3.40;;;;;;;10.46;100.00;99941.59;5236866;28;20026;-68
2023/12/12 13:36:16;;;;;;;7.60;3.13;;;;;;;10.43;100.00;99937.44;5236627;28;20033;-69
2023/12/12 13:38:48;;;;;;;5.50;2.80;;;;;;;10.40;100.00;99933.25;5234247;28;20028;-69
2023/12/12 13:41:19;;;;;;;9.57;2.93;;;;;;;10.38;100.00;99929.94;5236481;28;20037;-69
2023/12/12 13:43:50;;;;;;;5.43;2.60;;;;;;;10.45;100.00;99927.69;5236889;28;20025;-69
2023/12/12 13:46:22;;;;;;;8.90;3.47;;;;;;;10.40;100.00;99920.16;5236481;28;20063;-69
2023/12/12 13:48:53;;;;;;;6.60;3.33;;;;;;;10.40;100.00;99922.78;5236694;28;20022;-68
2023/12/12 13:51:24;;;;;;;7.83;3.43;;;;;;;10.48;100.00;99922.25;5236351;28;20043;-69
2023/12/12 13:53:55;;;;;;;7.53;2.93;;;;;;;10.36;100.00;99900.41;5235988;28;20056;-69
2023/12/12 13:56:27;;;;;;;8.07;3.67;;;;;;;10.43;100.00;99921.75;5235231;28;20040;-69
2023/12/12 13:58:58;;;;;;;6.20;3.67;;;;;;;10.37;100.00;99906.47;5236187;28;20028;-69
2023/12/12 14:01:29;;;;;;;6.37;3.53;;;;;;;10.45;100.00;99913.78;5235964;28;20060;-68
2023/12/12 14:04:01;;;;;;;8.03;3.77;;;;;;;10.45;100.00;99909.38;5235161;28;20518;-68
2023/12/12 14:06:32;;;;;;;15.37;10.27;;;;;;;10.41;100.00;99910.53;5237058;28;20448;-67
2023/12/12 14:09:03;;;;;;;18.37;11.20;;;;;;;10.47;100.00;99898.78;5234605;28;20029;-67
2023/12/12 14:11:35;;;;;;;19.43;12.23;;;;;;;10.45;100.00;99898.06;5236369;28;20478;-69
2023/12/12 14:14:07;;;;;;;15.40;10.37;;;;;;;10.40;100.00;99896.59;5235522;28;20034;-68
2023/12/12 14:16:38;;;;;;;15.37;9.33;;;;;;;10.23;100.00;99882.16;5235701;28;20053;-68
2023/12/12 14:19:10;;;;;;;13.53;6.80;;;;;;;10.28;100.00;99887.88;5233622;28;20033;-67
2023/12/12 14:21:41;;;;;;;8.77;6.93;;;;;;;10.34;100.00;99888.38;5233209;28;20483;-69
2023/12/12 14:24:12;;;;;;;9.60;4.70;;;;;;;10.40;100.00;99883.53;5230746;28;20118;-68
2023/12/12 14:26:44;;;;;;;8.43;3.60;;;;;;;10.40;100.00;99878.28;5232216;28;20022;-66
2023/12/12 14:29:17;;;;;;;9.00;4.33;;;;;;;10.33;100.00;99879.72;5235186;28;20108;-67
2023/12/12 14:31:48;;;;;;;5.87;3.00;;;;;;;10.37;100.00;99870.66;5233779;28;20456;-68
2023/12/12 14:34:19;;;;;;;8.20;5.37;;;;;;;10.40;100.00;99869.63;5233992;28;20083;-66
2023/12/12 14:36:51;;;;;;;12.77;4.67;;;;;;;10.37;100.00;99875.91;5233645;28;20499;-69
2023/12/12 14:39:22;;;;;;;6.90;3.90;;;;;;;10.22;100.00;99866.56;5217623;28;20050;-69
2023/12/12 14:41:54;;;;;;;5.00;3.83;;;;;;;10.40;100.00;99865.19;5222665;28;20030;-67
2023/12/12 14:44:25;;;;;;;5.70;3.90;;;;;;;10.32;100.00;99846.63;5235256;28;20038;-66
2023/12/12 14:46:56;;;;;;;5.77;4.40;;;;;;;10.15;100.00;99829.56;5229857;28;20079;-67
2023/12/12 14:49:27;;;;;;;7.70;4.73;;;;;;;10.31;100.00;99849.34;5234875;28;20052;-67
2023/12/12 14:51:59;;;;;;;7.33;5.00;;;;;;;10.33;100.00;99837.84;5228501;28;20412;-67
2023/12/12 14:54:30;;;;;;;9.43;5.40;;;;;;;10.31;100.00;99834.50;5234719;28;20364;-67
2023/12/12 14:57:02;;;;;;;8.83;5.03;;;;;;;10.32;100.00;99838.78;5238738;28;20224;-69
2023/12/12 14:59:33;;;;;;;9.20;5.00;;;;;;;10.36;100.00;99845.47;5233256;28;20053;-69
2023/12/12 15:02:04;;;;;;;7.63;4.37;;;;;;;10.20;100.00;99839.69;5235931;28;20168;-68
2023/12/12 15:04:36;;;;;;;8.70;4.90;;;;;;;10.03;100.00;99839.16;5246001;28;20029;-70
2023/12/12 15:07:07;;;;;;;6.73;4.80;;;;;;;10.16;100.00;99837.31;5243174;28;20148;-70
2023/12/12 15:09:38;;;;;;;6.17;4.20;;;;;;;10.25;100.00;99846.25;5223929;28;20029;-69
2023/12/12 15:12:10;;;;;;;7.57;4.67;;;;;;;10.23;100.00;99832.44;5233068;28;20584;-69
2023/12/12 15:14:41;;;;;;;7.43;4.30;;;;;;;10.33;100.00;99835.22;5234450;28;20026;-68
2023/12/12 15:17:12;;;;;;;5.40;4.30;;;;;;;10.34;100.00;99842.13;5234134;28;20025;-68
2023/12/12 15:19:43;;;;;;;5.70;4.30;;;;;;;10.33;100.00;99832.59;5234891;28;20029;-70
2023/12/12 15:22:15;;;;;;;10.17;4.83;;;;;;;10.29;100.00;99836.41;5231871;28;20075;-68
2023/12/12 15:24:46;;;;;;;8.33;5.27;;;;;;;10.21;100.00;99812.59;5234892;28;20456;-68
2023/12/12 15:27:18;;;;;;;7.43;5.03;;;;;;;10.34;100.00;99823.78;5233570;28;20041;-68
2023/12/12 15:29:53;;;;;;;7.13;4.90;;;;;;;10.34;100.00;99810.72;5254717;28;20047;-69
2023/12/12 15:32:24;;;;;;;7.40;5.13;;;;;;;10.37;100.00;99814.88;5252810;28;20399;-70
2023/12/12 15:34:56;;;;;;;8.07;4.73;;;;;;;10.32;100.00;99809.97;5254278;28;20029;-68
2023/12/12 15:37:27;;;;;;;9.47;5.57;;;;;;;10.41;100.00;99811.06;5252022;28;20086;-68
2023/12/12 15:40:00;;;;;;;6.30;5.23;;;;;;;10.44;100.00;99816.06;5237121;28;20083;-69
2023/12/12 15:42:32;;;;;;;5.63;4.57;;;;;;;10.42;100.00;99794.41;5233062;28;20029;-69
2023/12/12 15:45:04;;;;;;;8.23;5.77;;;;;;;10.39;100.00;99800.72;5233443;28;20615;-68
2023/12/12 15:47:35;;;;;;;7.83;5.77;;;;;;;10.36;100.00;99792.28;5233770;28;20030;-70
2023/12/12 15:50:08;;;;;;;6.07;5.00;;;;;;;10.35;100.00;99795.84;5234060;28;20060;-68
2023/12/12 15:52:39;;;;;;;5.40;4.87;;;;;;;10.38;100.00;99785.97;5233379;28;20053;-69
2023/12/12 15:55:10;;;;;;;7.27;4.83;;;;;;;10.29;100.00;99784.91;5253376;28;20075;-68
2023/12/12 15:57:42;;;;;;;7.63;5.80;;;;;;;10.26;100.00;99779.88;5254543;28;20056;-68
2023/12/12 16:00:13;;;;;;;7.23;5.07;;;;;;;10.34;100.00;99792.38;5251710;28;20060;-68
2023/12/12 16:02:45;;;;;;;7.23;6.23;;;;;;;10.33;100.00;99779.41;5241238;28;20032;-69
2023/12/12 16:05:16;;;;;;;9.63;5.80;;;;;;;10.33;100.00;99774.19;5243818;28;20044;-69
2023/12/12 16:07:47;;;;;;;6.63;5.77;;;;;;;10.34;100.00;99779.31;5240338;28;20057;-69
2023/12/12 16:10:18;;;;;;;7.60;5.60;;;;;;;10.38;100.00;99783.38;5233686;28;20160;-70
2023/12/12 16:12:50;;;;;;;6.10;5.23;;;;;;;10.35;100.00;99773.09;5232796;28;20026;-70
2023/12/12 16:15:21;;;;;;;7.67;4.97;;;;;;;10.29;100.00;99758.72;5233758;28;20025;-70
2023/12/12 16:17:52;;;;;;;6.33;5.10;;;;;;;10.25;100.00;99746.81;5236013;28;20109;-67
2023/12/12 16:20:25;;;;;;;6.47;5.50;;;;;;;10.28;100.00;99751.81;5235262;28;20029;-68
2023/12/12 16:22:56;;;;;;;11.10;6.83;;;;;;;10.17;100.00;99739.53;5233601;28;20439;-68
2023/12/12 16:25:28;;;;;;;9.70;6.00;;;;;;;10.23;100.00;99729.53;5234787;28;20033;-66
2023/12/12 16:28:01;;;;;;;7.90;6.43;;;;;;;10.21;100.00;99705.31;5235254;28;20108;-69
2023/12/12 16:30:32;;;;;;;7.17;5.30;;;;;;;10.07;100.00;99696.72;5248915;28;20025;-72
2023/12/12 16:33:03;;;;;;;7.73;5.33;;;;;;;10.24;100.00;99731.22;5234578;28;20030;-67
2023/12/12 16:35:35;;;;;;;8.63;6.17;;;;;;;10.16;100.00;99732.66;5229722;28;20028;-72
2023/12/12 16:38:06;;;;;;;6.47;4.47;;;;;;;10.19;100.00;99733.38;5229098;28;20091;-71
2023/12/12 16:40:39;;;;;;;6.10;2.83;;;;;;;10.24;100.00;99736.47;5236073;28;20032;-71
2023/12/12 16:43:11;;;;;;;4.03;2.73;;;;;;;10.21;100.00;99741.94;5246994;28;20040;-70
2023/12/12 16:45:43;;;;;;;6.13;2.40;;;;;;;10.17;100.00;99736.91;5246157;28;20021;-71
2023/12/12 16:48:14;;;;;;;5.73;2.80;;;;;;;10.16;100.00;99724.78;5256069;28;20021;-71
2023/12/12 16:50:45;;;;;;;3.40;2.20;;;;;;;10.08;100.00;99734.19;5240484;28;20466;-71
2023/12/12 16:53:17;;;;;;;3.57;1.83;;;;;;;10.08;100.00;99719.31;5236674;28;20092;-71
2023/12/12 16:55:48;;;;;;;5.47;1.93;;;;;;;10.06;100.00;99736.91;5228885;28;20029;-70
2023/12/12 16:58:20;;;;;;;4.80;1.50;;;;;;;10.03;100.00;99738.00;5216931;28;20333;-69
2023/12/12 17:00:51;;;;;;;3.23;1.50;;;;;;;10.04;100.00;99733.56;5228234;28;20662;-69
2023/12/12 17:03:23;;;;;;;4.90;1.40;;;;;;;9.96;100.00;99730.72;5218718;28;20022;-68
2023/12/12 17:05:54;;;;;;;4.53;1.53;;;;;;;9.88;100.00;99713.81;5224312;28;20033;-69
2023/12/12 17:08:25;;;;;;;5.67;2.17;;;;;;;9.89;100.00;99718.09;5221270;28;20029;-71
2023/12/12 17:10:57;;;;;;;4.27;1.20;;;;;;;9.84;100.00;99727.25;5234721;28;20029;-70
2023/12/12 17:13:28;;;;;;;3.17;1.43;;;;;;;9.75;100.00;99718.28;5226561;28;20021;-71
2023/12/12 17:15:59;;;;;;;3.87;1.20;;;;;;;9.65;100.00;99708.50;5228604;28;20076;-72
2023/12/12 17:18:31;;;;;;;4.00;1.40;;;;;;;9.74;100.00;99727.09;5221567;28;20522;-72
2023/12/12 17:21:05;;;;;;;7.97;2.20;;;;;;;9.65;100.00;99712.94;5228808;28;20116;-71
2023/12/12 17:23:36;;;;;;;7.90;1.95;;;;;;;9.65;100.00;99713.75;5221493;28;20108;-71
2023/12/12 17:26:08;;;;;;;7.17;1.70;;;;;;;9.56;100.00;99710.03;5224676;28;20105;-71
2023/12/12 17:28:39;;;;;;;5.73;2.00;;;;;;;9.59;100.00;99701.13;5219280;28;20029;-71
2023/12/12 17:31:11;;;;;;;5.80;1.60;;;;;;;9.45;100.00;99704.78;5220018;28;20060;-69
2023/12/12 17:33:42;;;;;;;7.50;1.93;;;;;;;9.46;100.00;99713.44;5227930;28;20026;-70
2023/12/12 17:36:13;;;;;;;4.90;1.60;;;;;;;9.46;100.00;99708.22;5237276;28;20029;-71
2023/12/12 17:38:45;;;;;;;3.70;1.53;;;;;;;9.39;100.00;99708.66;5243464;28;20359;-71
2023/12/12 17:41:17;;;;;;;4.70;1.60;;;;;;;9.40;100.00;99712.97;5232537;28;20029;-70
2023/12/12 17:43:48;;;;;;;4.87;1.60;;;;;;;9.28;100.00;99695.56;5231371;28;20159;-71
2023/12/12 17:46:20;;;;;;;5.23;1.93;;;;;;;9.34;100.00;99699.50;5220164;28;20495;-71
2023/12/12 17:48:52;;;;;;;5.10;1.43;;;;;;;9.38;100.00;99704.38;5235765;28;20036;-71
2023/12/12 17:51:26;;;;;;;5.13;1.53;;;;;;;9.32;100.00;99702.22;5235063;28;20586;-72
2023/12/12 17:53:58;;;;;;;6.10;1.90;;;;;;;9.31;100.00;99704.00;5234522;28;20061;-72
2023/12/12 17:56:29;;;;;;;7.10;2.13;;;;;;;9.07;100.00;99693.56;5235434;28;20021;-72
2023/12/12 17:59:01;;;;;;;4.67;1.43;;;;;;;9.23;100.00;99697.66;5231905;28;20075;-71
2023/12/12 18:01:37;;;;;;;6.13;2.63;;;;;;;9.22;100.00;99685.53;5231942;28;20041;-72
2023/12/12 18:04:08;;;;;;;5.83;2.20;;;;;;;9.06;100.00;99689.25;5232942;28;20021;-72
2023/12/12 18:06:40;;;;;;;7.20;2.27;;;;;;;8.83;100.00;99661.25;5227121;28;20017;-71
2023/12/12 18:09:11;;;;;;;6.57;2.40;;;;;;;9.08;100.00;99682.16;5219329;28;20024;-72
2023/12/12 18:11:43;;;;;;;6.53;2.43;;;;;;;8.98;100.00;99670.72;5229064;28;20026;-72
2023/12/12 18:14:14;;;;;;;8.70;3.70;;;;;;;8.86;100.00;99675.88;5234595;28;20427;-72
2023/12/12 18:16:45;;;;;;;7.00;3.60;;;;;;;8.80;100.00;99673.69;5234151;28;20057;-72
2023/12/12 18:19:16;;;;;;;5.67;3.10;;;;;;;8.69;100.00;99664.84;5242043;28;20024;-71
2023/12/12 18:21:51;;;;;;;9.17;2.30;;;;;;;8.79;100.00;99664.19;5246512;28;20020;-72
2023/12/12 18:24:22;;;;;;;8.48;1.77;;;;;;;8.68;100.00;99657.13;5243428;28;20025;-72
2023/12/12 18:26:55;;;;;;;5.90;1.70;;;;;;;8.71;100.00;99662.97;5247131;28;20105;-73
2023/12/12 18:29:27;;;;;;;6.60;1.57;;;;;;;8.78;100.00;99652.09;5243833;28;20021;-73
2023/12/12 18:31:58;;;;;;;6.90;2.37;;;;;;;8.78;100.00;99655.53;5245556;28;20028;-72
2023/12/12 18:34:29;;;;;;;6.77;2.70;;;;;;;8.69;100.00;99664.84;5244326;28;20511;-72
2023/12/12 18:37:00;;;;;;;8.23;3.17;;;;;;;8.83;100.00;99656.03;5245541;28;20387;-72
2023/12/12 18:39:32;;;;;;;6.07;2.23;;;;;;;8.74;100.00;99655.88;5244521;28;20471;-72
2023/12/12 18:42:03;;;;;;;8.87;3.50;;;;;;;8.71;100.00;99647.31;5235367;28;20052;-72
2023/12/12 18:44:35;;;;;;;4.90;2.13;;;;;;;8.76;100.00;99654.00;5234589;28;20119;-72
2023/12/12 18:47:06;;;;;;;10.73;3.37;;;;;;;8.66;100.00;99656.41;5244045;28;20025;-73
2023/12/12 18:49:39;;;;;;;7.13;3.03;;;;;;;8.45;100.00;99647.34;5238707;28;20018;-72
2023/12/12 18:52:11;;;;;;;10.63;3.30;;;;;;;8.64;100.00;99637.44;5236809;28;20037;-72
2023/12/12 18:54:42;;;;;;;7.37;2.97;;;;;;;8.63;100.00;99643.56;5238924;28;20018;-72
2023/12/12 18:57:13;;;;;;;6.63;3.23;;;;;;;8.62;100.00;99639.31;5237888;28;20160;-72
2023/12/12 18:59:45;;;;;;;8.50;3.00;;;;;;;8.62;100.00;99637.53;5238689;28;20041;-72
2023/12/12 19:02:16;;;;;;;7.33;3.27;;;;;;;8.45;100.00;99621.25;5237804;28;20022;-72
2023/12/12 19:04:48;;;;;;;10.73;5.47;;;;;;;8.44;100.00;99600.50;5236398;28;20387;-71
2023/12/12 19:07:19;;;;;;;17.70;7.83;;;;;;;8.58;100.00;99620.41;5225252;28;20383;-72
2023/12/12 19:09:54;;;;;;;10.73;6.77;;;;;;;8.27;100.00;99589.50;5225168;28;20040;-73
2023/12/12 19:12:25;;;;;;;9.00;3.70;;;;;;;8.53;100.00;99617.28;5233495;28;20233;-72
2023/12/12 19:14:56;;;;;;;7.87;3.67;;;;;;;8.44;100.00;99596.13;5235531;28;20037;-73
2023/12/12 19:17:28;;;;;;;9.73;4.13;;;;;;;8.54;100.00;99592.84;5237823;28;20029;-72
2023/12/12 19:20:01;;;;;;;6.20;3.20;;;;;;;8.54;100.00;99601.50;5236440;28;20055;-73
2023/12/12 19:22:33;;;;;;;11.33;4.10;;;;;;;8.43;100.00;99584.00;5236965;28;20049;-72
2023/12/12 19:25:05;;;;;;;4.87;3.27;;;;;;;8.63;100.00;99613.09;5235344;28;20026;-73
2023/12/12 19:27:37;;;;;;;9.03;4.03;;;;;;;8.60;100.00;99605.50;5238373;28;20540;-73
2023/12/12 19:30:09;;;;;;;13.97;4.93;;;;;;;8.59;100.00;99606.41;5234601;28;20112;-73
2023/12/12 19:32:40;;;;;;;8.67;4.73;;;;;;;8.56;100.00;99601.41;5236370;28;20047;-73
2023/12/12 19:35:13;;;;;;;12.80;5.23;;;;;;;8.62;100.00;99608.00;5232750;28;20029;-72
2023/12/12 19:37:48;;;;;;;10.97;5.10;;;;;;;8.67;100.00;99608.50;5236683;28;20091;-73
2023/12/12 19:40:19;;;;;;;17.27;6.23;;;;;;;8.63;100.00;99607.03;5236210;28;20772;-73
2023/12/12 19:42:54;;;;;;;13.03;5.90;;;;;;;8.65;100.00;99603.38;5236432;28;20073;-70
2023/12/12 19:45:25;;;;;;;10.93;5.47;;;;;;;8.68;100.00;99599.69;5232749;28;20569;-70
2023/12/12 19:47:57;;;;;;;11.33;6.13;;;;;;;8.72;100.00;99595.94;5233691;28;20049;-71
2023/12/12 19:50:29;;;;;;;12.53;5.57;;;;;;;8.68;100.00;99597.94;5233864;28;20059;-71
2023/12/12 19:53:06;;;;;;;13.10;5.23;;;;;;;8.80;100.00;99605.81;5232868;28;20365;-71
2023/12/12 19:55:37;;;;;;;13.93;5.80;;;;;;;8.77;100.00;99606.88;5234027;28;20116;-71
2023/12/12 19:58:09;;;;;;;11.17;6.43;;;;;;;8.81;100.00;99612.72;5233621;28;20155;-70
2023/12/12 20:00:40;;;;;;;14.50;5.87;;;;;;;8.80;100.00;99616.25;5235038;28;20045;-70
2023/12/12 20:03:11;;;;;;;14.70;6.60;;;;;;;8.85;100.00;99621.97;5234040;28;20033;-70
2023/12/12 20:05:43;;;;;;;14.00;5.57;;;;;;;8.90;100.00;99632.91;5232645;28;20026;-71
2023/12/12 20:08:14;;;;;;;15.60;5.83;;;;;;;8.90;100.00;99619.88;5230857;28;20034;-71
2023/12/12 20:10:46;;;;;;;14.57;5.20;;;;;;;8.86;100.00;99608.00;5230237;28;20383;-71
2023/12/12 20:13:17;;;;;;;12.93;4.60;;;;;;;8.93;100.00;99622.28;5237404;28;20430;-70
2023/12/12 20:15:48;;;;;;;8.60;4.13;;;;;;;8.99;100.00;99620.16;5237209;28;20127;-71
2023/12/12 20:18:23;;;;;;;10.27;5.17;;;;;;;8.91;100.00;99623.31;5244181;28;20037;-68
2023/12/12 20:20:54;;;;;;;10.55;4.65;;;;;;;8.96;100.00;99629.03;5238161;28;20484;-69
2023/12/12 20:23:25;;;;;;;11.03;5.60;;;;;;;8.97;100.00;99627.28;5245060;28;20071;-72
2023/12/12 20:25:56;;;;;;;13.13;5.10;;;;;;;8.97;100.00;99620.28;5236304;28;20017;-72
2023/12/12 20:28:28;;;;;;;14.90;5.33;;;;;;;8.98;100.00;99621.09;5229213;28;20468;-71
2023/12/12 20:31:01;;;;;;;12.23;4.97;;;;;;;8.89;100.00;99628.66;5242735;28;20044;-71
2023/12/12 20:33:33;;;;;;;11.47;4.80;;;;;;;8.97;100.00;99630.72;5240420;28;20052;-75
2023/12/12 20:36:05;;;;;;;14.83;5.00;;;;;;;8.94;100.00;99629.16;5251462;28;20057;-74
2023/12/12 20:38:38;;;;;;;14.67;5.80;;;;;;;9.00;100.00;99634.88;5235026;28;20037;-74
2023/12/12 20:41:11;;;;;;;11.17;5.40;;;;;;;9.00;100.00;99642.72;5275609;28;20040;-75
2023/12/12 20:43:42;;;;;;;10.37;5.10;;;;;;;9.03;100.00;99645.09;5237388;28;20458;-72
2023/12/12 20:46:13;;;;;;;14.80;5.30;;;;;;;9.03;100.00;99645.09;5218379;28;20033;-73
2023/12/12 20:48:45;;;;;;;13.30;5.53;;;;;;;9.03;100.00;99629.41;5212979;28;20069;-72
2023/12/12 20:51:16;;;;;;;15.63;4.90;;;;;;;8.92;100.00;99627.63;5229609;28;20029;-71
2023/12/12 20:53:47;;;;;;;10.37;5.03;;;;;;;8.97;100.00;99617.66;5232323;28;20040;-73
2023/12/12 20:56:19;;;;;;;11.60;5.30;;;;;;;9.01;100.00;99632.16;5243532;28;20079;-71
2023/12/12 20:58:50;;;;;;;10.27;3.90;;;;;;;9.01;100.00;99632.16;5228962;28;20032;-71
2023/12/12 21:01:22;;;;;;;9.30;3.57;;;;;;;8.95;100.00;99625.59;5229669;28;20046;-70
2023/12/12 21:03:53;;;;;;;17.57;5.07;;;;;;;9.02;100.00;99633.84;5225666;28;20029;-70
2023/12/12 21:06:24;;;;;;;11.00;3.63;;;;;;;9.06;100.00;99647.47;5245569;28;20029;-70
2023/12/12 21:08:55;;;;;;;9.17;3.63;;;;;;;9.01;100.00;99646.97;5224016;28;20026;-70
2023/12/12 21:11:27;;;;;;;9.17;3.73;;;;;;;9.01;100.00;99647.81;5236610;28;20026;-69
2023/12/12 21:13:59;;;;;;;9.23;2.97;;;;;;;9.02;100.00;99635.59;5235787;28;20040;-71
2023/12/12 21:16:30;;;;;;;7.87;2.63;;;;;;;9.01;100.00;99633.91;5226967;28;20080;-71
2023/12/12 21:19:01;;;;;;;8.63;2.83;;;;;;;8.98;100.00;99623.69;5231321;28;20391;-70
2023/12/12 21:21:33;;;;;;;5.63;2.10;;;;;;;8.96;100.00;99623.81;5230959;28;20038;-72
2023/12/12 21:24:04;;;;;;;8.83;2.87;;;;;;;8.92;100.00;99617.97;5228977;28;20041;-74
2023/12/12 21:26:36;;;;;;;7.20;2.77;;;;;;;8.97;100.00;99619.44;5232410;28;20038;-74
2023/12/12 21:29:08;;;;;;;8.30;2.50;;;;;;;8.89;100.00;99620.81;5239039;28;20105;-74
2023/12/12 21:31:39;;;;;;;7.03;1.80;;;;;;;8.94;100.00;99626.53;5227241;28;20092;-73
2023/12/12 21:34:11;;;;;;;5.73;1.90;;;;;;;8.91;100.00;99615.47;5234340;28;20030;-70
2023/12/12 21:36:43;;;;;;;8.10;3.17;;;;;;;8.94;100.00;99623.09;5235066;28;20404;-71
2023/12/12 21:39:14;;;;;;;6.90;3.43;;;;;;;8.91;100.00;99620.72;5220009;28;20042;-71
2023/12/12 21:41:46;;;;;;;5.67;2.37;;;;;;;8.92;100.00;99628.44;5223897;28;20044;-71
2023/12/12 21:44:17;;;;;;;9.17;2.63;;;;;;;8.81;100.00;99610.91;5235137;28;20071;-71
2023/12/12 21:46:48;;;;;;;6.50;2.53;;;;;;;8.83;100.00;99626.50;5231537;28;20029;-72
2023/12/12 21:49:20;;;;;;;8.47;2.20;;;;;;;8.80;100.00;99613.66;5233302;28;20026;-73
2023/12/12 21:51:51;;;;;;;6.73;2.57;;;;;;;8.70;100.00;99616.09;5229047;28;20033;-73
2023/12/12 21:54:22;;;;;;;5.30;2.40;;;;;;;8.75;100.00;99616.59;5229402;28;20037;-76
2023/12/12 21:56:53;;;;;;;9.37;2.90;;;;;;;8.63;100.00;99600.03;5219011;28;20060;-73
2023/12/12 21:59:25;;;;;;;6.57;2.63;;;;;;;8.75;100.00;99613.16;5216421;28;20054;-73
